• Join FlightAware (Why Join?)
  • Login
  • US Flag 
06:43PM EST


 

Airport Tracker/Info


-or-


 

Live Flight TrackerFlight Track Log ✈ SWA1668 ✈ 30-Apr-2013 ✈ KAMA - KDAL

Flight Track Log - Related Links

Times and Time Zones

All times are in EDT time to prevent confusion due to time zone crossing. See the SWA1668 flight status page for this flight to view local times or setup timezone preferences in your user account.

Time Position Orientation Groundspeed Altitude Reporting Facility
EDT Latitude Longitude Course Direction KTS MPH feet Rate Location/Type
03:09PM 35.1550 -101.6100 137° Southeast 214 246 7,300  Level Albuquerque Center
03:11PM 35.1386 -101.5203 103° East 265 305 9,900 2,460 Climbing Albuquerque Center
03:12PM 35.1542 -101.4136 80° East 313 360 12,500 3,120 Climbing Albuquerque Center
03:13PM 35.1325 -101.2653 100° East 370 426 16,400 2,460 Climbing Albuquerque Center
03:14PM 35.1004 -101.1349 107° East  Level FlightAware Approximate
03:14PM 35.0839 -101.1494 117° Southeast 380 437 17,600  Level Albuquerque Center
03:15PM 35.0325 -101.0258 117° Southeast 399 459 20,600 2,880 Climbing Albuquerque Center
03:16PM 34.9781 -100.8969 117° Southeast 420 483 23,600 2,700 Climbing Albuquerque Center
03:17PM 34.9225 -100.7658 117° Southeast 432 497 26,300 2,340 Climbing Albuquerque Center
03:18PM 34.8653 -100.6308 117° Southeast 444 511 28,500 2,040 Climbing Albuquerque Center
03:19PM 34.8069 -100.4947 118° Southeast 451 519 30,500 2,340 Climbing Albuquerque Center
03:20PM 34.7403 -100.3428 118° Southeast 454 522 33,300 2,340 Climbing Albuquerque Center
03:21PM 34.6836 -100.2108 118° Southeast 446 513 35,400 1,740 Climbing Albuquerque Center
03:22PM 34.6269 -100.0814 118° Southeast 438 504 37,000 840 Climbing Albuquerque Center
03:23PM 34.5811 -99.9661 116° Southeast 436 502 37,000  Level Fort Worth Center
03:24PM 34.5233 -99.8358 118° Southeast 431 496 37,000  Level Fort Worth Center
03:25PM 34.4692 -99.7208 120° Southeast 439 505 37,000  Level Fort Worth Center
03:26PM 34.4131 -99.5958 119° Southeast 439 505 37,000  Level Fort Worth Center
03:27PM 34.3589 -99.4664 117° Southeast 434 499 37,000  Level Fort Worth Center
03:28PM 34.3025 -99.3392 118° Southeast 434 499 37,000  Level Fort Worth Center
03:29PM 34.2458 -99.2100 118° Southeast 434 499 37,000  Level Fort Worth Center
03:30PM 34.1892 -99.0906 120° Southeast 429 494 37,000  Level Fort Worth Center
03:31PM 34.1325 -98.9642 118° Southeast 423 487 37,000  Level Fort Worth Center
03:32PM 34.0775 -98.8303 116° Southeast 433 498 37,000 -180 Level Fort Worth Center
03:33PM 34.0183 -98.7039 119° Southeast 439 505 36,700 -1,200 Descending Fort Worth Center
03:34PM 33.9614 -98.5781 119° Southeast 439 505 34,600 -2,940 Descending Fort Worth Center
03:35PM 33.8917 -98.4344 120° Southeast 444 511 30,900 -3,180 Descending Fort Worth Center
03:36PM 33.8342 -98.3036 118° Southeast 444 511 28,300 -2,400 Descending Fort Worth Center
03:37PM 33.7847 -98.1906 118° Southeast 444 511 26,200 -2,280 Descending Fort Worth Center
03:38PM 33.7292 -98.0703 119° Southeast 428 493 23,800 -2,520 Descending Fort Worth Center
03:40PM 33.6300 -97.8200 115° Southeast 393 452 18,700 -2,580 Descending Fort Worth Center
03:41PM 33.5761 -97.7125 121° Southeast 380 437 16,200 -2,220 Descending Fort Worth Center
03:42PM 33.5261 -97.6153 122° Southeast 380 437 14,300 -2,340 Descending Fort Worth Center
03:43PM 33.4678 -97.5031 122° Southeast 368 423 11,600 -1,680 Descending Fort Worth Center
03:44PM 33.4094 -97.4308 134° Southeast 350 403 11,000 -600 Descending Fort Worth Center
03:45PM 33.3594 -97.3389 123° Southeast 323 372 10,400 -1,080 Descending Fort Worth Center
03:46PM 33.3656 -97.2517 85° East 274 315 8,900 -1,500 Descending Fort Worth Center
03:47PM 33.3675 -97.1472 89° East 279 321 7,400 -1,620 Descending Fort Worth Center
03:48PM 33.3547 -97.0578 100° East 273 314 5,700 -1,500 Descending Fort Worth Center
03:49PM 33.3522 -96.9658 92° East 273 314 4,400 -900 Descending Fort Worth Center
03:50PM 33.3519 -96.8764 90° East 273 314 4,000 -240 Descending Fort Worth Center
03:51PM 33.3142 -96.8094 124° Southeast 239 275 4,000  Level Fort Worth Center
03:52PM 33.2681 -96.7525 134° Southeast 245 282 4,000  Level Fort Worth Center
03:53PM 33.2217 -96.7058 140° Southeast 221 254 4,000  Level Fort Worth Center
03:54PM 33.1678 -96.7358 205° Southwest 198 228 4,000 -540 Level Fort Worth Center
03:55PM 33.1156 -96.7736 211° Southwest 217 250 3,000 -780 Descending Fort Worth Center
03:55PM 33.1000 -96.7833 208° Southwest 223 257 3,000  Level Dallas / Fort Worth TRACON
03:56PM 33.0500 -96.8167 209° Southwest 215 247 3,000  Level Dallas / Fort Worth TRACON
03:57PM 33.0000 -96.8667 220° Southwest 177 204 3,000 -300 Level Dallas / Fort Worth TRACON
03:58PM 32.9833 -96.9167 248° West 186 214 2,400 -540 Descending Dallas / Fort Worth TRACON
03:59PM 32.9333 -96.9167 180° South 166 191 2,000 -420 Descending Dallas / Fort Worth TRACON